createdAt,value
2023-03-17T00:01:44.777Z,98189.56
2023-03-17T00:04:12.440Z,98183.59
2023-03-17T00:06:40.317Z,98186.13
2023-03-17T00:09:14.719Z,98191.84
2023-03-17T00:11:41.749Z,98195.28
2023-03-17T00:14:08.439Z,98191.31
2023-03-17T00:16:37.404Z,98193.94
2023-03-17T00:19:04.104Z,98192.78
2023-03-17T00:21:31.950Z,98183.72
2023-03-17T00:23:59.578Z,98183.81
2023-03-17T00:26:26.707Z,98184.16
2023-03-17T00:28:54.751Z,98187.16
2023-03-17T00:31:25.479Z,98188.72
2023-03-17T00:33:54.015Z,98174.94
2023-03-17T00:36:26.110Z,98181.34
2023-03-17T00:38:52.840Z,98170.03
2023-03-17T00:41:20.056Z,98171.69
2023-03-17T00:43:46.641Z,98167.31
2023-03-17T00:46:14.805Z,98174.16
2023-03-17T00:48:41.770Z,98169.66
2023-03-17T00:51:10.925Z,98163.56
2023-03-17T00:53:37.733Z,98167.94
2023-03-17T00:56:06.407Z,98156.34
2023-03-17T00:58:33.962Z,98164.53
2023-03-17T01:01:00.946Z,98151.16
2023-03-17T01:03:28.008Z,98148.94
2023-03-17T01:05:57.719Z,98148.31
2023-03-17T01:08:25.706Z,98134.41
2023-03-17T01:10:52.386Z,98126.66
2023-03-17T01:13:19.281Z,98131.09
2023-03-17T01:15:47.117Z,98120.09
2023-03-17T01:18:16.004Z,98133.03
2023-03-17T01:20:42.840Z,98131.28
2023-03-17T01:23:09.652Z,98124.13
2023-03-17T01:25:36.558Z,98120.25
2023-03-17T01:28:03.414Z,98117.81
2023-03-17T01:30:32.763Z,98120.06
2023-03-17T01:32:59.531Z,98120.63
2023-03-17T01:35:26.921Z,98118.84
2023-03-17T01:37:53.431Z,98113.47
2023-03-17T01:40:22.240Z,98113.06
2023-03-17T01:43:00.361Z,98114.75
2023-03-17T01:45:45.972Z,98107.25
2023-03-17T01:48:13.472Z,98107.13
2023-03-17T01:50:41.071Z,98105.53
2023-03-17T01:53:07.568Z,98104.94
2023-03-17T01:55:34.419Z,98104.63
2023-03-17T01:58:01.123Z,98105.28
2023-03-17T02:00:27.748Z,98099.69
2023-03-17T02:02:56.275Z,98104.59
2023-03-17T02:05:25.971Z,98101.50
2023-03-17T02:07:53.603Z,98099.06
2023-03-17T02:10:26.205Z,98096.16
2023-03-17T02:13:00.389Z,98096.66
2023-03-17T02:15:35.753Z,98086.34
2023-03-17T02:18:02.227Z,98085.28
2023-03-17T02:20:29.133Z,98076.69
2023-03-17T02:22:57.224Z,98077.28
2023-03-17T02:25:24.785Z,98082.84
2023-03-17T02:27:55.549Z,98068.81
2023-03-17T02:30:22.743Z,98070.06
2023-03-17T02:32:49.424Z,98065.84
2023-03-17T02:35:16.454Z,98070.56
2023-03-17T02:37:43.791Z,98069.31
2023-03-17T02:40:11.311Z,98072.59
2023-03-17T02:42:39.423Z,98069.59
2023-03-17T02:45:06.612Z,98076.66
2023-03-17T02:47:33.319Z,98076.34
2023-03-17T02:49:59.973Z,98075.59
2023-03-17T02:52:26.999Z,98084.94
2023-03-17T02:54:53.548Z,98081.19
2023-03-17T02:57:20.015Z,98080.91
2023-03-17T02:59:46.532Z,98089.75
2023-03-17T03:02:14.255Z,98082.06
2023-03-17T03:04:41.836Z,98071.53
2023-03-17T03:07:08.691Z,98075.59
2023-03-17T03:09:35.349Z,98071.53
2023-03-17T03:12:01.991Z,98074.06
2023-03-17T03:14:28.508Z,98080.19
2023-03-17T03:16:54.976Z,98074.56
2023-03-17T03:19:22.330Z,98065.66
2023-03-17T03:21:49.353Z,98074.16
2023-03-17T03:24:15.948Z,98075.22
2023-03-17T03:26:42.532Z,98076.38
2023-03-17T03:29:09.103Z,98072.09
2023-03-17T03:31:35.753Z,98070.50
2023-03-17T03:34:02.218Z,98070.06
2023-03-17T03:36:28.802Z,98072.59
2023-03-17T03:38:55.291Z,98074.94
2023-03-17T03:41:21.863Z,98078.63
2023-03-17T03:43:48.338Z,98079.50
2023-03-17T03:46:15.781Z,98075.53
2023-03-17T03:48:42.344Z,98077.88
2023-03-17T03:51:08.788Z,98073.66
2023-03-17T03:53:35.608Z,98081.63
2023-03-17T03:56:02.163Z,98067.94
2023-03-17T03:58:28.865Z,98073.00
2023-03-17T04:00:55.751Z,98075.22
2023-03-17T04:03:22.287Z,98073.50
2023-03-17T04:05:48.734Z,98073.16
2023-03-17T04:08:15.374Z,98066.63
2023-03-17T04:10:42.180Z,98074.09
2023-03-17T04:13:08.655Z,98064.28
2023-03-17T04:15:35.100Z,98064.06
2023-03-17T04:18:01.558Z,98062.63
2023-03-17T04:20:28.354Z,98056.63
2023-03-17T04:22:55.163Z,98058.34
2023-03-17T04:25:21.697Z,98054.66
2023-03-17T04:27:48.170Z,98059.22
2023-03-17T04:30:16.666Z,98055.72
2023-03-17T04:32:43.287Z,98060.00
2023-03-17T04:35:13.944Z,98061.41
2023-03-17T04:37:40.482Z,98061.81
2023-03-17T04:40:09.931Z,98069.38
2023-03-17T04:42:37.002Z,98065.78
2023-03-17T04:45:04.125Z,98065.25
2023-03-17T04:47:31.015Z,98059.22
2023-03-17T04:49:57.487Z,98058.53
2023-03-17T04:52:23.933Z,98057.38
2023-03-17T04:54:50.463Z,98064.09
2023-03-17T04:57:16.937Z,98070.94
2023-03-17T04:59:43.587Z,98060.88
2023-03-17T05:02:10.158Z,98060.66
2023-03-17T05:04:36.799Z,98061.94
2023-03-17T05:07:03.626Z,98058.81
2023-03-17T05:09:30.390Z,98070.88
2023-03-17T05:11:56.875Z,98070.38
2023-03-17T05:14:23.346Z,98078.66
2023-03-17T05:16:49.997Z,98068.34
2023-03-17T05:19:17.497Z,98072.31
2023-03-17T05:21:44.111Z,98078.13
2023-03-17T05:24:10.661Z,98083.66
2023-03-17T05:26:37.294Z,98077.75
2023-03-17T05:29:03.990Z,98083.06
2023-03-17T05:31:31.061Z,98087.03
2023-03-17T05:33:57.997Z,98083.25
2023-03-17T05:36:25.024Z,98093.97
2023-03-17T05:38:52.311Z,98105.66
2023-03-17T05:41:18.862Z,98103.13
2023-03-17T05:43:45.452Z,98100.44
2023-03-17T05:46:12.021Z,98100.81
2023-03-17T05:48:38.494Z,98106.28
2023-03-17T05:51:05.145Z,98101.22
2023-03-17T05:53:31.557Z,98110.78
2023-03-17T05:55:58.153Z,98115.50
2023-03-17T05:58:24.688Z,98114.03
2023-03-17T06:00:51.647Z,98117.13
2023-03-17T06:03:18.197Z,98113.31
2023-03-17T06:05:44.676Z,98117.19
2023-03-17T06:08:11.374Z,98116.19
2023-03-17T06:10:37.838Z,98113.94
2023-03-17T06:13:04.563Z,98113.63
2023-03-17T06:15:31.490Z,98116.84
2023-03-17T06:17:58.077Z,98111.75
2023-03-17T06:20:25.144Z,98110.06
2023-03-17T06:23:03.258Z,98112.91
2023-03-17T06:25:31.166Z,98107.75
2023-03-17T06:27:57.891Z,98104.44
2023-03-17T06:30:24.452Z,98106.44
2023-03-17T06:32:51.006Z,98094.84
2023-03-17T06:35:18.131Z,98092.72
2023-03-17T06:37:44.854Z,98094.50
2023-03-17T06:40:12.585Z,98099.84
2023-03-17T06:42:39.041Z,98095.91
2023-03-17T06:45:05.719Z,98093.34
2023-03-17T06:47:32.224Z,98095.94
2023-03-17T06:49:58.717Z,98098.00
2023-03-17T06:52:25.325Z,98089.47
2023-03-17T06:54:52.072Z,98089.03
2023-03-17T06:57:18.569Z,98082.34
2023-03-17T06:59:45.814Z,98082.69
2023-03-17T07:02:12.738Z,98087.41
2023-03-17T07:04:39.470Z,98082.53
2023-03-17T07:07:06.124Z,98081.22
2023-03-17T07:09:35.681Z,98083.13
2023-03-17T07:12:05.111Z,98083.81
2023-03-17T07:14:33.852Z,98092.44
2023-03-17T07:17:00.359Z,98088.91
2023-03-17T07:19:27.310Z,98088.66
2023-03-17T07:21:55.792Z,98085.34
2023-03-17T07:24:22.686Z,98092.41
2023-03-17T07:26:49.281Z,98090.13
2023-03-17T07:29:16.559Z,98091.22
2023-03-17T07:31:44.058Z,98098.06
2023-03-17T07:34:11.241Z,98093.09
2023-03-17T07:36:37.723Z,98096.28
2023-03-17T07:39:04.697Z,98100.97
2023-03-17T07:41:31.304Z,98105.50
2023-03-17T07:43:57.826Z,98096.53
2023-03-17T07:46:24.404Z,98093.84
2023-03-17T07:48:51.079Z,98095.84
2023-03-17T07:51:19.050Z,98104.34
2023-03-17T07:53:46.388Z,98094.59
2023-03-17T07:56:12.883Z,98100.59
2023-03-17T07:58:40.147Z,98095.72
2023-03-17T08:01:08.756Z,98097.22
2023-03-17T08:03:35.683Z,98099.53
2023-03-17T08:06:02.922Z,98095.63
2023-03-17T08:08:29.704Z,98100.63
2023-03-17T08:11:04.540Z,98087.09
2023-03-17T08:13:31.334Z,98090.41
2023-03-17T08:15:58.186Z,98093.28
2023-03-17T08:18:24.659Z,98095.75
2023-03-17T08:20:51.437Z,98089.28
2023-03-17T08:23:18.795Z,98088.19
2023-03-17T08:25:45.746Z,98080.47
2023-03-17T08:28:12.535Z,98080.94
2023-03-17T08:30:39.335Z,98084.38
2023-03-17T08:33:06.259Z,98072.72
2023-03-17T08:35:33.160Z,98072.41
2023-03-17T08:38:00.147Z,98065.94
2023-03-17T08:40:26.997Z,98075.31
2023-03-17T08:42:53.480Z,98062.03
2023-03-17T08:45:19.984Z,98062.38
2023-03-17T08:47:47.707Z,98063.69
2023-03-17T08:50:21.934Z,98067.19
2023-03-17T08:52:49.028Z,98062.16
2023-03-17T08:55:16.247Z,98049.03
2023-03-17T08:57:44.576Z,98057.16
2023-03-17T09:00:16.239Z,98066.91
2023-03-17T09:02:43.637Z,98051.97
2023-03-17T09:05:11.755Z,98065.69
2023-03-17T09:07:38.365Z,98051.50
2023-03-17T09:10:07.243Z,98057.78
2023-03-17T09:12:34.308Z,98052.38
2023-03-17T09:15:01.813Z,98051.84
2023-03-17T09:17:28.310Z,98056.34
2023-03-17T09:19:54.762Z,98047.78
2023-03-17T09:22:21.653Z,98059.13
2023-03-17T09:24:48.146Z,98064.88
2023-03-17T09:27:14.628Z,98063.75
2023-03-17T09:29:42.219Z,98058.75
2023-03-17T09:32:08.776Z,98055.50
2023-03-17T09:34:35.885Z,98053.53
2023-03-17T09:37:02.436Z,98053.53
2023-03-17T09:39:29.035Z,98052.06
2023-03-17T09:41:57.083Z,98048.38
2023-03-17T09:44:42.001Z,98043.38
2023-03-17T09:47:27.438Z,98035.59
2023-03-17T09:50:03.062Z,98040.28
2023-03-17T09:52:31.699Z,98031.81
2023-03-17T09:54:58.982Z,98030.06
2023-03-17T09:57:29.303Z,98025.28
2023-03-17T10:00:06.538Z,98025.69
2023-03-17T10:02:35.414Z,98023.97
2023-03-17T10:05:19.520Z,98012.38
2023-03-17T10:07:49.441Z,98013.19
2023-03-17T10:10:20.082Z,98010.03
2023-03-17T10:12:54.653Z,98003.34
2023-03-17T10:15:34.645Z,98007.16
2023-03-17T10:18:02.453Z,98005.66
2023-03-17T10:20:33.146Z,97996.44
2023-03-17T10:23:12.280Z,97997.97
2023-03-17T10:25:39.409Z,97997.47
2023-03-17T10:28:09.185Z,97992.97
2023-03-17T10:30:35.770Z,98001.47
2023-03-17T10:33:03.832Z,97995.22
2023-03-17T10:35:36.022Z,97996.25
2023-03-17T10:38:14.873Z,98000.31
2023-03-17T10:40:44.108Z,97996.59
2023-03-17T10:43:14.274Z,97999.41
2023-03-17T10:45:47.402Z,97993.44
2023-03-17T10:48:18.805Z,97990.66
2023-03-17T10:50:48.613Z,97987.47
2023-03-17T10:53:28.355Z,97991.41
2023-03-17T10:55:58.581Z,97988.00
2023-03-17T10:58:39.082Z,97974.84
2023-03-17T11:01:05.714Z,97972.59
2023-03-17T11:03:35.309Z,97972.63
2023-03-17T11:06:10.173Z,97968.00
2023-03-17T11:08:43.020Z,97964.63
2023-03-17T11:11:27.038Z,97972.16
2023-03-17T11:14:11.613Z,97970.78
2023-03-17T11:16:40.687Z,97964.69
2023-03-17T11:19:12.228Z,97956.31
2023-03-17T11:21:55.460Z,97957.91
2023-03-17T11:24:30.865Z,97951.47
2023-03-17T11:26:58.461Z,97938.44
2023-03-17T11:29:34.315Z,97934.03
2023-03-17T11:32:06.403Z,97940.31
2023-03-17T11:34:36.118Z,97933.31
2023-03-17T11:37:10.177Z,97930.44
2023-03-17T11:39:44.321Z,97926.50
2023-03-17T11:42:31.904Z,97919.59
2023-03-17T11:44:58.339Z,97921.47
2023-03-17T11:47:33.271Z,97904.22
2023-03-17T11:50:18.821Z,97908.03
2023-03-17T11:52:54.402Z,97894.03
2023-03-17T11:55:24.019Z,97899.31
2023-03-17T11:57:55.810Z,97886.63
2023-03-17T12:00:33.720Z,97888.59
2023-03-17T12:03:08.673Z,97879.75
2023-03-17T12:05:35.644Z,97874.41
2023-03-17T12:08:05.813Z,97876.50
2023-03-17T12:10:37.699Z,97873.59
2023-03-17T12:13:04.818Z,97875.13
2023-03-17T12:15:37.824Z,97852.72
2023-03-17T12:18:09.557Z,97862.63
2023-03-17T12:20:46.523Z,97857.41
2023-03-17T12:23:32.705Z,97847.19
2023-03-17T12:26:08.669Z,97847.75
2023-03-17T12:28:55.661Z,97833.78
2023-03-17T12:31:25.780Z,97838.22
2023-03-17T12:34:00.743Z,97826.06
2023-03-17T12:36:28.005Z,97828.34
2023-03-17T12:38:59.190Z,97830.38
2023-03-17T12:41:36.952Z,97822.81
2023-03-17T12:44:07.936Z,97806.66
2023-03-17T12:46:42.748Z,97820.88
2023-03-17T12:49:28.190Z,97812.69
2023-03-17T12:52:13.447Z,97805.63
2023-03-17T12:54:44.767Z,97798.41
2023-03-17T12:57:19.314Z,97797.88
2023-03-17T12:59:47.732Z,97805.75
2023-03-17T13:02:21.647Z,97794.25
2023-03-17T13:05:01.381Z,97788.56
2023-03-17T13:07:32.807Z,97791.94
2023-03-17T13:10:02.320Z,97788.38
2023-03-17T13:12:44.467Z,97776.69
2023-03-17T13:15:30.874Z,97780.53
2023-03-17T13:18:15.983Z,97774.78
2023-03-17T13:20:42.490Z,97772.47
2023-03-17T13:23:16.239Z,97756.84
2023-03-17T13:25:51.576Z,97755.69
2023-03-17T13:28:23.648Z,97755.44
2023-03-17T13:30:59.135Z,97757.44
2023-03-17T13:33:32.240Z,97765.38
2023-03-17T13:36:07.994Z,97760.72
2023-03-17T13:38:40.973Z,97754.41
2023-03-17T13:41:33.066Z,97748.97
2023-03-17T13:44:17.874Z,97746.59
2023-03-17T13:46:46.713Z,97744.03
2023-03-17T13:49:27.570Z,97741.53
2023-03-17T13:52:17.529Z,97744.06
2023-03-17T13:54:49.111Z,97740.59
2023-03-17T13:57:24.171Z,97738.13
2023-03-17T13:59:50.618Z,97731.72
2023-03-17T14:02:18.767Z,97726.78
2023-03-17T14:04:56.321Z,97725.34
2023-03-17T14:07:25.637Z,97725.09
2023-03-17T14:09:57.392Z,97726.81
2023-03-17T14:12:44.958Z,97716.56
2023-03-17T14:15:29.804Z,97706.28
2023-03-17T14:17:59.406Z,97711.84
2023-03-17T14:20:27.042Z,97707.88
2023-03-17T14:23:03.894Z,97699.84
2023-03-17T14:25:33.004Z,97702.16
2023-03-17T14:28:00.147Z,97699.50
2023-03-17T14:30:28.596Z,97688.72
2023-03-17T14:32:58.398Z,97693.91
2023-03-17T14:35:25.507Z,97683.03
2023-03-17T14:37:51.955Z,97686.69
2023-03-17T14:40:20.142Z,97674.19
2023-03-17T14:42:46.603Z,97672.88
2023-03-17T14:45:27.746Z,97673.34
2023-03-17T14:47:54.425Z,97677.16
2023-03-17T14:50:31.426Z,97669.78
2023-03-17T14:52:59.359Z,97669.41
2023-03-17T14:55:43.974Z,97665.50
2023-03-17T14:58:22.732Z,97665.59
2023-03-17T15:00:54.692Z,97669.44
2023-03-17T15:03:22.771Z,97662.78
2023-03-17T15:05:50.085Z,97666.78
2023-03-17T15:08:34.544Z,97648.56
2023-03-17T15:11:04.230Z,97653.63
2023-03-17T15:13:33.227Z,97655.13
2023-03-17T15:16:05.324Z,97652.22
2023-03-17T15:18:31.979Z,97643.66
2023-03-17T15:21:00.247Z,97648.84
2023-03-17T15:23:28.880Z,97636.28
2023-03-17T15:25:56.458Z,97639.38
2023-03-17T15:28:24.758Z,97640.84
2023-03-17T15:30:53.058Z,97637.53
2023-03-17T15:33:29.034Z,97635.56
2023-03-17T15:36:01.922Z,97641.00
2023-03-17T15:38:28.620Z,97639.34
2023-03-17T15:40:55.216Z,97639.03
2023-03-17T15:43:22.023Z,97625.16
2023-03-17T15:45:55.519Z,97632.84
2023-03-17T15:48:26.465Z,97631.59
2023-03-17T15:50:53.897Z,97635.66
2023-03-17T15:53:20.336Z,97632.63
2023-03-17T15:55:47.219Z,97631.34
2023-03-17T15:58:14.141Z,97629.59
2023-03-17T16:00:41.452Z,97620.81
2023-03-17T16:03:08.873Z,97618.13
2023-03-17T16:05:36.072Z,97626.38
2023-03-17T16:08:02.512Z,97625.19
2023-03-17T16:10:30.844Z,97616.25
2023-03-17T16:12:57.713Z,97616.03
2023-03-17T16:15:25.665Z,97617.34
2023-03-17T16:17:53.572Z,97613.97
2023-03-17T16:20:22.336Z,97614.25
2023-03-17T16:22:49.227Z,97621.13
2023-03-17T16:25:21.656Z,97616.88
2023-03-17T16:27:48.937Z,97617.13
2023-03-17T16:30:16.406Z,97623.38
2023-03-17T16:32:42.874Z,97623.50
2023-03-17T16:35:19.470Z,97625.97
2023-03-17T16:37:46.273Z,97617.78
2023-03-17T16:40:20.828Z,97621.56
2023-03-17T16:42:47.914Z,97616.63
2023-03-17T16:45:15.703Z,97620.00
2023-03-17T16:47:42.131Z,97624.00
2023-03-17T16:50:16.352Z,97624.66
2023-03-17T16:52:42.811Z,97624.06
2023-03-17T16:55:09.814Z,97616.75
2023-03-17T16:57:37.037Z,97620.63
2023-03-17T17:00:06.938Z,97621.91
2023-03-17T17:02:33.864Z,97629.03
2023-03-17T17:05:02.167Z,97617.31
2023-03-17T17:07:28.833Z,97616.38
2023-03-17T17:09:55.348Z,97629.06
2023-03-17T17:12:21.785Z,97623.59
2023-03-17T17:14:48.187Z,97626.78
2023-03-17T17:17:14.774Z,97634.19
2023-03-17T17:19:41.773Z,97629.75
2023-03-17T17:22:10.472Z,97625.44
2023-03-17T17:24:36.917Z,97639.22
2023-03-17T17:27:03.408Z,97629.75
2023-03-17T17:29:32.275Z,97632.84
2023-03-17T17:31:59.008Z,97638.56
2023-03-17T17:34:25.493Z,97637.44
2023-03-17T17:36:51.998Z,97636.59
2023-03-17T17:39:18.518Z,97645.91
2023-03-17T17:41:45.172Z,97631.22
2023-03-17T17:44:11.633Z,97641.31
2023-03-17T17:46:38.166Z,97640.47
2023-03-17T17:49:05.048Z,97647.19
2023-03-17T17:51:32.706Z,97643.53
2023-03-17T17:53:59.290Z,97638.09
2023-03-17T17:56:26.008Z,97638.91
2023-03-17T17:58:52.522Z,97641.22
2023-03-17T18:01:22.333Z,97643.00
2023-03-17T18:03:48.912Z,97642.00
2023-03-17T18:06:17.097Z,97644.56
2023-03-17T18:08:44.293Z,97643.72
2023-03-17T18:11:10.904Z,97641.50
2023-03-17T18:13:39.017Z,97645.09
2023-03-17T18:16:09.669Z,97639.00
2023-03-17T18:18:38.021Z,97642.91
2023-03-17T18:21:04.545Z,97643.84
2023-03-17T18:23:31.224Z,97642.38
2023-03-17T18:26:01.656Z,97643.72
2023-03-17T18:28:28.183Z,97647.63
2023-03-17T18:30:55.114Z,97642.78
2023-03-17T18:33:21.753Z,97647.50
2023-03-17T18:35:49.385Z,97646.19
2023-03-17T18:38:16.044Z,97648.16
2023-03-17T18:40:43.049Z,97631.63
2023-03-17T18:43:09.493Z,97637.06
2023-03-17T18:45:36.135Z,97638.44
2023-03-17T18:48:02.651Z,97632.47
2023-03-17T18:50:29.128Z,97633.78
2023-03-17T18:52:56.076Z,97631.81
2023-03-17T18:55:22.664Z,97630.97
2023-03-17T18:57:49.115Z,97631.28
2023-03-17T19:00:17.346Z,97630.38
2023-03-17T19:02:44.101Z,97630.22
2023-03-17T19:05:11.606Z,97631.41
2023-03-17T19:07:40.278Z,97624.13
2023-03-17T19:10:07.187Z,97623.44
2023-03-17T19:12:33.810Z,97630.22
2023-03-17T19:15:00.426Z,97634.13
2023-03-17T19:17:27.942Z,97619.84
2023-03-17T19:19:54.369Z,97630.91
2023-03-17T19:22:21.260Z,97625.91
2023-03-17T19:24:50.095Z,97628.34
2023-03-17T19:27:17.383Z,97631.28
2023-03-17T19:29:43.891Z,97630.59
2023-03-17T19:32:10.424Z,97631.06
2023-03-17T19:34:37.046Z,97627.81
2023-03-17T19:37:03.939Z,97629.66
2023-03-17T19:39:31.325Z,97630.63
2023-03-17T19:41:59.138Z,97629.91
2023-03-17T19:44:25.937Z,97634.63
2023-03-17T19:46:52.566Z,97635.00
2023-03-17T19:49:21.106Z,97632.56
2023-03-17T19:51:48.841Z,97629.91
2023-03-17T19:54:15.459Z,97636.94
2023-03-17T19:56:42.406Z,97629.03
2023-03-17T19:59:08.957Z,97633.31
2023-03-17T20:01:37.810Z,97627.94
2023-03-17T20:04:06.714Z,97623.34
2023-03-17T20:06:34.503Z,97625.63
2023-03-17T20:09:03.737Z,97626.50
2023-03-17T20:11:33.774Z,97625.53
2023-03-17T20:14:01.118Z,97620.78
2023-03-17T20:16:27.968Z,97621.28
2023-03-17T20:18:54.480Z,97617.41
2023-03-17T20:21:21.133Z,97613.63
2023-03-17T20:23:47.574Z,97610.72
2023-03-17T20:26:14.185Z,97614.63
2023-03-17T20:28:40.704Z,97610.72
2023-03-17T20:31:08.009Z,97607.81
2023-03-17T20:33:35.056Z,97610.72
2023-03-17T20:36:03.131Z,97609.13
2023-03-17T20:38:31.280Z,97602.81
2023-03-17T20:41:11.371Z,97604.78
2023-03-17T20:43:38.205Z,97606.81
2023-03-17T20:46:08.910Z,97604.78
2023-03-17T20:48:37.089Z,97601.22
2023-03-17T20:51:07.004Z,97596.16
2023-03-17T20:53:34.245Z,97597.84
2023-03-17T20:56:00.706Z,97590.22
2023-03-17T20:58:27.677Z,97586.66
2023-03-17T21:00:54.973Z,97582.81
2023-03-17T21:03:21.551Z,97584.47
2023-03-17T21:05:48.282Z,97588.25
2023-03-17T21:08:14.788Z,97585.94
2023-03-17T21:10:41.344Z,97575.28
2023-03-17T21:13:07.825Z,97579.88
2023-03-17T21:15:34.406Z,97586.66
2023-03-17T21:18:01.053Z,97580.34
2023-03-17T21:20:27.587Z,97582.16
2023-03-17T21:22:54.053Z,97576.94
2023-03-17T21:25:20.494Z,97581.25
2023-03-17T21:27:47.014Z,97566.00
2023-03-17T21:30:14.467Z,97561.78
2023-03-17T21:32:41.810Z,97566.81
2023-03-17T21:35:08.814Z,97570.34
2023-03-17T21:37:35.427Z,97562.09
2023-03-17T21:40:02.083Z,97565.69
2023-03-17T21:42:29.111Z,97560.63
2023-03-17T21:44:55.623Z,97562.06
2023-03-17T21:47:22.136Z,97555.47
2023-03-17T21:49:48.592Z,97558.63
2023-03-17T21:52:15.282Z,97547.84
2023-03-17T21:54:42.221Z,97558.91
2023-03-17T21:57:08.690Z,97556.22
2023-03-17T21:59:35.746Z,97546.88
2023-03-17T22:02:02.860Z,97548.34
2023-03-17T22:04:29.934Z,97552.00
2023-03-17T22:06:56.668Z,97552.91
2023-03-17T22:09:23.164Z,97547.13
2023-03-17T22:11:49.793Z,97551.66
2023-03-17T22:14:19.985Z,97550.41
2023-03-17T22:16:47.312Z,97544.13
2023-03-17T22:19:13.866Z,97546.09
2023-03-17T22:21:40.588Z,97542.88
2023-03-17T22:24:07.294Z,97539.41
2023-03-17T22:26:34.236Z,97535.59
2023-03-17T22:29:01.397Z,97538.34
2023-03-17T22:31:28.835Z,97532.63
2023-03-17T22:33:57.665Z,97527.78
2023-03-17T22:36:25.172Z,97525.84
2023-03-17T22:38:52.040Z,97532.34
2023-03-17T22:41:19.812Z,97526.69
2023-03-17T22:43:46.992Z,97531.19
2023-03-17T22:46:14.133Z,97518.75
2023-03-17T22:48:40.823Z,97516.53
2023-03-17T22:51:09.111Z,97520.09
2023-03-17T22:53:36.038Z,97518.63
2023-03-17T22:56:03.783Z,97517.25
2023-03-17T22:58:30.848Z,97524.84
2023-03-17T23:00:57.387Z,97515.69
2023-03-17T23:03:24.932Z,97521.94
2023-03-17T23:05:52.446Z,97516.53
2023-03-17T23:08:19.492Z,97519.13
2023-03-17T23:10:47.715Z,97519.66
2023-03-17T23:13:14.485Z,97517.72
2023-03-17T23:15:41.627Z,97512.53
2023-03-17T23:18:08.952Z,97513.16
2023-03-17T23:20:35.667Z,97521.22
2023-03-17T23:23:02.262Z,97514.88
2023-03-17T23:25:28.731Z,97514.88
2023-03-17T23:27:55.204Z,97513.13
2023-03-17T23:30:21.707Z,97512.50
2023-03-17T23:32:49.203Z,97509.53
2023-03-17T23:35:16.115Z,97514.66
2023-03-17T23:37:42.791Z,97513.38
2023-03-17T23:40:10.452Z,97523.81
2023-03-17T23:42:37.048Z,97521.25
2023-03-17T23:45:04.331Z,97513.81
2023-03-17T23:47:31.148Z,97513.41
2023-03-17T23:49:57.681Z,97506.59
2023-03-17T23:52:24.216Z,97508.91
2023-03-17T23:54:51.123Z,97512.97
2023-03-17T23:57:17.556Z,97513.16
2023-03-17T23:59:43.992Z,97500.09
